Time;durP1;ratioP1;P1;durP2;ratioP2;P2;SDS_P1;SDS_P2;PMS_P1;PMS_P2;Temp;Humidity;BMP_temperature;BMP_pressure;BME280_temperature;BME280_humidity;BME280_pressure;Samples;Min_cycle;Max_cycle;Signal;HPM_P1;HPM_P2
2024/01/10 00:01:46;;;;;;;14.23;7.00;;;;;;;;;;5004516;28;20187;-81
2024/01/10 00:04:13;;;;;;;11.93;7.15;;;;;;;;;;5004728;28;20234;-81
2024/01/10 00:06:39;;;;;;;14.02;6.70;;;;;;;;;;5004865;28;20230;-80
2024/01/10 00:09:05;;;;;;;13.20;7.80;;;;;;;;;;5002270;28;20182;-80
2024/01/10 00:11:31;;;;;;;13.13;7.97;;;;;;;;;;5002933;28;20185;-80
2024/01/10 00:13:59;;;;;;;15.35;8.00;;;;;;;;;;5003390;28;20327;-80
2024/01/10 00:16:26;;;;;;;12.80;6.45;;;;;;;;;;5002919;28;20190;-81
2024/01/10 00:18:52;;;;;;;11.60;6.78;;;;;;;;;;5004456;28;20180;-82
2024/01/10 00:21:18;;;;;;;12.05;7.43;;;;;;;;;;5003683;28;20190;-80
2024/01/10 00:23:44;;;;;;;12.48;6.97;;;;;;;;;;5003776;28;20215;-80
2024/01/10 00:26:10;;;;;;;15.52;8.25;;;;;;;;;;5004240;28;20182;-81
2024/01/10 00:28:36;;;;;;;12.27;7.60;;;;;;;;;;5005033;28;20218;-80
2024/01/10 00:31:02;;;;;;;13.23;6.33;;;;;;;;;;5004601;28;20651;-80
2024/01/10 00:33:28;;;;;;;13.95;7.32;;;;;;;;;;5003550;28;20649;-80
2024/01/10 00:35:54;;;;;;;15.30;7.25;;;;;;;;;;5003498;28;20205;-80
2024/01/10 00:38:20;;;;;;;15.03;8.33;;;;;;;;;;5003870;28;20201;-79
2024/01/10 00:40:46;;;;;;;12.68;7.03;;;;;;;;;;5003903;28;20436;-80
2024/01/10 00:43:12;;;;;;;13.35;6.85;;;;;;;;;;4999857;28;20182;-80
2024/01/10 00:45:38;;;;;;;14.77;7.88;;;;;;;;;;4987936;28;20212;-80
2024/01/10 00:48:04;;;;;;;11.60;7.13;;;;;;;;;;4999892;28;20232;-80
2024/01/10 00:50:30;;;;;;;17.65;10.43;;;;;;;;;;5002187;28;21081;-80
2024/01/10 00:52:56;;;;;;;13.93;7.03;;;;;;;;;;5002910;28;20208;-80
2024/01/10 00:55:22;;;;;;;14.80;8.05;;;;;;;;;;5001198;28;20431;-80
2024/01/10 00:57:48;;;;;;;12.50;7.00;;;;;;;;;;5003249;28;20197;-80
2024/01/10 01:00:14;;;;;;;17.52;7.82;;;;;;;;;;5002032;28;20651;-80
2024/01/10 01:02:40;;;;;;;13.15;7.68;;;;;;;;;;5002367;28;20551;-81
2024/01/10 01:05:07;;;;;;;15.98;7.68;;;;;;;;;;5001836;28;20291;-80
2024/01/10 01:07:33;;;;;;;16.50;6.70;;;;;;;;;;5002670;28;20183;-80
2024/01/10 01:09:59;;;;;;;15.27;7.90;;;;;;;;;;5002868;28;20178;-80
2024/01/10 01:12:25;;;;;;;12.50;7.70;;;;;;;;;;5002314;28;20630;-80
2024/01/10 01:14:51;;;;;;;16.90;10.25;;;;;;;;;;5002724;28;20249;-80
2024/01/10 01:17:17;;;;;;;14.43;9.45;;;;;;;;;;5003021;28;20233;-80
2024/01/10 01:19:43;;;;;;;14.23;7.05;;;;;;;;;;5003133;28;20194;-80
2024/01/10 01:22:09;;;;;;;18.65;11.63;;;;;;;;;;5002751;28;20173;-80
2024/01/10 01:24:35;;;;;;;14.00;8.02;;;;;;;;;;5001799;28;20296;-80
2024/01/10 01:27:01;;;;;;;16.55;8.55;;;;;;;;;;5006539;28;20176;-80
2024/01/10 01:29:28;;;;;;;21.60;8.55;;;;;;;;;;5006211;28;20185;-84
2024/01/10 01:31:54;;;;;;;14.30;7.32;;;;;;;;;;5006781;28;20190;-80
2024/01/10 01:34:20;;;;;;;9.82;6.50;;;;;;;;;;5006354;28;20326;-81
2024/01/10 01:36:46;;;;;;;15.50;5.97;;;;;;;;;;5006238;28;20181;-80
2024/01/10 01:39:13;;;;;;;13.90;7.43;;;;;;;;;;5006506;28;20263;-80
2024/01/10 01:41:39;;;;;;;14.52;7.30;;;;;;;;;;5005825;28;20176;-80
2024/01/10 01:44:05;;;;;;;11.13;6.40;;;;;;;;;;5011150;28;20228;-80
2024/01/10 01:46:32;;;;;;;12.32;6.38;;;;;;;;;;5010135;28;20277;-80
2024/01/10 01:48:58;;;;;;;13.38;6.50;;;;;;;;;;5006791;28;20182;-80
2024/01/10 01:51:24;;;;;;;12.15;7.28;;;;;;;;;;5006165;28;20197;-80
2024/01/10 01:53:51;;;;;;;16.98;6.63;;;;;;;;;;5006924;28;20522;-80
2024/01/10 01:56:17;;;;;;;16.75;8.90;;;;;;;;;;5006237;28;20182;-80
2024/01/10 01:58:44;;;;;;;16.98;7.75;;;;;;;;;;5005818;28;20203;-80
2024/01/10 02:01:11;;;;;;;13.30;7.18;;;;;;;;;;5005767;28;20186;-80
2024/01/10 02:03:37;;;;;;;14.45;7.32;;;;;;;;;;5005820;28;20266;-80
2024/01/10 02:06:03;;;;;;;12.48;6.50;;;;;;;;;;5002585;28;20190;-80
2024/01/10 02:08:31;;;;;;;17.83;7.97;;;;;;;;;;5007319;28;20256;-80
2024/01/10 02:10:57;;;;;;;13.38;7.03;;;;;;;;;;4998476;28;20548;-80
2024/01/10 02:13:24;;;;;;;15.55;7.13;;;;;;;;;;5012443;28;20685;-80
2024/01/10 02:15:50;;;;;;;12.50;8.27;;;;;;;;;;5005841;28;20199;-80
2024/01/10 02:18:16;;;;;;;13.50;8.27;;;;;;;;;;5000405;28;20187;-83
2024/01/10 02:20:45;;;;;;;15.55;8.45;;;;;;;;;;4986411;28;20189;-80
2024/01/10 02:23:11;;;;;;;15.20;8.77;;;;;;;;;;5001915;28;20194;-80
2024/01/10 02:25:38;;;;;;;14.25;7.65;;;;;;;;;;5006069;28;20265;-80
2024/01/10 02:28:04;;;;;;;12.98;6.75;;;;;;;;;;5005909;28;20184;-80
2024/01/10 02:30:30;;;;;;;14.55;6.60;;;;;;;;;;5006024;28;20214;-80
2024/01/10 02:32:56;;;;;;;11.07;7.30;;;;;;;;;;5001483;28;20175;-80
2024/01/10 02:35:22;;;;;;;12.98;7.40;;;;;;;;;;5005555;28;20570;-80
2024/01/10 02:37:51;;;;;;;12.43;6.38;;;;;;;;;;5005381;28;20189;-80
2024/01/10 02:40:17;;;;;;;12.90;6.95;;;;;;;;;;5004422;28;20223;-83
2024/01/10 02:42:43;;;;;;;15.30;6.18;;;;;;;;;;5004001;28;20188;-80
2024/01/10 02:45:09;;;;;;;14.60;7.60;;;;;;;;;;5004734;28;20234;-80
2024/01/10 02:47:37;;;;;;;11.57;6.95;;;;;;;;;;5005141;28;20207;-80
2024/01/10 02:50:03;;;;;;;15.85;7.03;;;;;;;;;;5005387;28;20214;-80
2024/01/10 02:52:29;;;;;;;10.70;6.35;;;;;;;;;;5005157;28;20257;-81
2024/01/10 02:54:55;;;;;;;11.00;6.10;;;;;;;;;;5003810;28;20216;-80
2024/01/10 02:57:21;;;;;;;11.23;7.57;;;;;;;;;;5005002;28;20238;-81
2024/01/10 02:59:47;;;;;;;12.43;6.72;;;;;;;;;;5004772;28;20180;-80
2024/01/10 03:02:13;;;;;;;12.70;6.70;;;;;;;;;;5005181;28;20191;-80
2024/01/10 03:04:39;;;;;;;14.20;7.13;;;;;;;;;;5004676;28;20243;-80
2024/01/10 03:07:05;;;;;;;11.00;6.68;;;;;;;;;;5005041;28;20606;-80
2024/01/10 03:09:31;;;;;;;11.93;7.78;;;;;;;;;;5014775;28;20190;-80
2024/01/10 03:11:57;;;;;;;13.63;6.93;;;;;;;;;;5019159;28;20183;-80
2024/01/10 03:14:23;;;;;;;11.25;5.97;;;;;;;;;;5005113;28;20500;-80
2024/01/10 03:16:49;;;;;;;11.40;7.70;;;;;;;;;;5005483;28;20186;-80
2024/01/10 03:19:15;;;;;;;13.02;6.32;;;;;;;;;;5004080;28;20183;-80
2024/01/10 03:21:41;;;;;;;12.32;6.63;;;;;;;;;;5003831;28;20191;-80
2024/01/10 03:24:07;;;;;;;13.85;7.47;;;;;;;;;;5004499;28;20229;-80
2024/01/10 03:26:34;;;;;;;11.85;6.60;;;;;;;;;;5004646;28;20178;-80
2024/01/10 03:29:00;;;;;;;10.52;5.88;;;;;;;;;;5004536;28;20182;-80
2024/01/10 03:31:27;;;;;;;11.77;7.25;;;;;;;;;;5003975;28;20183;-81
2024/01/10 03:33:53;;;;;;;12.77;7.30;;;;;;;;;;5004415;28;20175;-80
2024/01/10 03:36:19;;;;;;;12.30;6.60;;;;;;;;;;5005637;28;20186;-80
2024/01/10 03:38:45;;;;;;;10.48;6.97;;;;;;;;;;5004940;28;20213;-79
2024/01/10 03:41:15;;;;;;;8.48;5.65;;;;;;;;;;5006574;28;20191;-80
2024/01/10 03:43:41;;;;;;;13.13;7.00;;;;;;;;;;5003483;28;20222;-80
2024/01/10 03:46:07;;;;;;;12.90;6.10;;;;;;;;;;5005444;28;20186;-80
2024/01/10 03:48:33;;;;;;;12.10;7.78;;;;;;;;;;5003473;28;20182;-80
2024/01/10 03:50:59;;;;;;;13.20;7.50;;;;;;;;;;5005233;28;20521;-81
2024/01/10 03:53:25;;;;;;;18.08;7.70;;;;;;;;;;5004752;28;20230;-81
2024/01/10 03:55:51;;;;;;;15.88;8.27;;;;;;;;;;5004692;28;20185;-80
2024/01/10 03:58:17;;;;;;;16.38;7.70;;;;;;;;;;5004139;28;20186;-80
2024/01/10 04:00:43;;;;;;;14.35;8.20;;;;;;;;;;5004936;28;20588;-80
2024/01/10 04:03:09;;;;;;;10.40;6.43;;;;;;;;;;5003891;28;20298;-80
2024/01/10 04:05:35;;;;;;;11.30;7.70;;;;;;;;;;4989549;28;20196;-80
2024/01/10 04:08:01;;;;;;;12.95;8.48;;;;;;;;;;4985299;28;20199;-80
2024/01/10 04:10:27;;;;;;;14.23;7.03;;;;;;;;;;5002917;28;20278;-80
2024/01/10 04:12:53;;;;;;;13.57;7.45;;;;;;;;;;5009900;28;20194;-80
2024/01/10 04:15:19;;;;;;;13.23;6.75;;;;;;;;;;5004243;28;20173;-80
2024/01/10 04:17:45;;;;;;;15.85;7.13;;;;;;;;;;5004832;28;20176;-80
2024/01/10 04:20:11;;;;;;;12.20;7.85;;;;;;;;;;5004252;28;20186;-80
2024/01/10 04:22:37;;;;;;;13.07;8.43;;;;;;;;;;5011663;28;20258;-80
2024/01/10 04:25:04;;;;;;;21.08;8.60;;;;;;;;;;5003504;28;20214;-80
2024/01/10 04:27:30;;;;;;;16.23;8.13;;;;;;;;;;5003795;28;20177;-80
2024/01/10 04:29:56;;;;;;;15.07;9.07;;;;;;;;;;5003920;28;20212;-80
2024/01/10 04:32:23;;;;;;;14.82;7.68;;;;;;;;;;5003912;28;20193;-80
2024/01/10 04:34:48;;;;;;;17.98;9.13;;;;;;;;;;5003960;28;20175;-80
2024/01/10 04:37:14;;;;;;;19.05;9.52;;;;;;;;;;5004389;28;20531;-80
2024/01/10 04:39:42;;;;;;;14.57;8.20;;;;;;;;;;5006757;28;20182;-80
2024/01/10 04:42:08;;;;;;;13.32;6.93;;;;;;;;;;5014567;28;20186;-80
2024/01/10 04:44:34;;;;;;;11.95;8.20;;;;;;;;;;5004123;28;20599;-81
2024/01/10 04:47:00;;;;;;;12.80;8.18;;;;;;;;;;5004076;28;20176;-80
2024/01/10 04:49:26;;;;;;;11.02;7.38;;;;;;;;;;5003643;28;20267;-81
2024/01/10 04:51:52;;;;;;;13.27;7.68;;;;;;;;;;5003477;28;20175;-79
2024/01/10 04:54:18;;;;;;;12.95;7.40;;;;;;;;;;5002940;28;20192;-80
2024/01/10 04:56:44;;;;;;;13.02;8.05;;;;;;;;;;5002870;28;20913;-80
2024/01/10 04:59:10;;;;;;;12.80;6.78;;;;;;;;;;5003501;28;20188;-80
2024/01/10 05:01:37;;;;;;;18.05;9.00;;;;;;;;;;5006372;28;20189;-80
2024/01/10 05:04:03;;;;;;;15.05;7.25;;;;;;;;;;5005529;28;20239;-80
2024/01/10 05:06:29;;;;;;;13.30;7.25;;;;;;;;;;5017417;28;20240;-80
2024/01/10 05:08:57;;;;;;;11.45;6.85;;;;;;;;;;5026717;28;20177;-80
2024/01/10 05:11:24;;;;;;;14.43;7.18;;;;;;;;;;5021435;28;20243;-80
2024/01/10 05:13:50;;;;;;;14.43;8.00;;;;;;;;;;5005630;28;20649;-80
2024/01/10 05:16:17;;;;;;;13.77;8.15;;;;;;;;;;5006255;28;20190;-80
2024/01/10 05:18:43;;;;;;;14.80;8.80;;;;;;;;;;5005256;28;20177;-80
2024/01/10 05:21:09;;;;;;;13.48;7.40;;;;;;;;;;5007435;28;20180;-80
2024/01/10 05:23:35;;;;;;;14.80;7.57;;;;;;;;;;5006146;28;20208;-80
2024/01/10 05:26:01;;;;;;;9.40;6.25;;;;;;;;;;5006917;28;20179;-80
2024/01/10 05:28:27;;;;;;;11.45;5.78;;;;;;;;;;5007534;28;20183;-84
2024/01/10 05:30:53;;;;;;;12.93;7.38;;;;;;;;;;5006676;28;20185;-80
2024/01/10 05:33:20;;;;;;;16.90;7.57;;;;;;;;;;5007573;28;20211;-80
2024/01/10 05:35:47;;;;;;;7.63;4.70;;;;;;;;;;5006845;28;20194;-80
2024/01/10 05:38:13;;;;;;;15.85;7.55;;;;;;;;;;5003124;28;20202;-80
2024/01/10 05:40:39;;;;;;;22.40;9.65;;;;;;;;;;5008396;28;20181;-80
2024/01/10 05:43:05;;;;;;;15.00;9.20;;;;;;;;;;5009365;28;20197;-80
2024/01/10 05:45:31;;;;;;;21.35;9.55;;;;;;;;;;5007780;28;20252;-80
2024/01/10 05:47:57;;;;;;;23.57;9.83;;;;;;;;;;5009846;28;20187;-80
2024/01/10 05:50:23;;;;;;;22.23;12.00;;;;;;;;;;5009074;28;20410;-80
2024/01/10 05:52:49;;;;;;;22.27;11.00;;;;;;;;;;5008171;28;20215;-80
2024/01/10 05:55:15;;;;;;;17.40;9.73;;;;;;;;;;5007942;28;20205;-80
2024/01/10 05:57:41;;;;;;;19.73;10.93;;;;;;;;;;5008517;28;20200;-80
2024/01/10 06:00:11;;;;;;;17.27;9.38;;;;;;;;;;5008561;28;20231;-80
2024/01/10 06:02:40;;;;;;;15.40;9.27;;;;;;;;;;5008068;28;20189;-80
2024/01/10 06:05:09;;;;;;;16.52;9.15;;;;;;;;;;5009125;28;20209;-80
2024/01/10 06:07:35;;;;;;;12.65;7.28;;;;;;;;;;5008089;28;20179;-81
2024/01/10 06:10:01;;;;;;;16.67;8.25;;;;;;;;;;5009175;28;20179;-80
2024/01/10 06:12:28;;;;;;;19.05;7.85;;;;;;;;;;5007535;28;20177;-80
2024/01/10 06:14:54;;;;;;;18.17;8.23;;;;;;;;;;5008524;28;20191;-80
2024/01/10 06:17:20;;;;;;;18.13;8.88;;;;;;;;;;5008413;28;20173;-80
2024/01/10 06:19:46;;;;;;;12.20;7.95;;;;;;;;;;5007569;28;20194;-80
2024/01/10 06:22:12;;;;;;;13.38;7.85;;;;;;;;;;5008421;28;20194;-80
2024/01/10 06:24:38;;;;;;;18.77;9.48;;;;;;;;;;5007875;28;20203;-81
2024/01/10 06:27:05;;;;;;;21.50;11.32;;;;;;;;;;5008350;28;20535;-80
2024/01/10 06:29:31;;;;;;;20.75;9.70;;;;;;;;;;5007187;28;20182;-81
2024/01/10 06:31:57;;;;;;;17.77;9.35;;;;;;;;;;5006822;28;20188;-80
2024/01/10 06:34:24;;;;;;;20.33;10.00;;;;;;;;;;5007368;28;20568;-80
2024/01/10 06:36:50;;;;;;;14.38;9.10;;;;;;;;;;5007137;28;20364;-81
2024/01/10 06:39:19;;;;;;;12.57;7.03;;;;;;;;;;5006181;28;20195;-80
2024/01/10 06:41:45;;;;;;;10.68;6.72;;;;;;;;;;5006222;28;20173;-81
2024/01/10 06:44:11;;;;;;;21.77;9.27;;;;;;;;;;5006207;28;20235;-80
2024/01/10 06:46:37;;;;;;;18.13;8.13;;;;;;;;;;5006542;28;20200;-81
2024/01/10 06:49:03;;;;;;;18.92;9.57;;;;;;;;;;5007439;28;20197;-80
2024/01/10 06:51:29;;;;;;;17.15;9.10;;;;;;;;;;5007492;28;20182;-80
2024/01/10 06:54:02;;;;;;;15.80;8.00;;;;;;;;;;5007477;28;20250;-80
2024/01/10 06:56:28;;;;;;;15.07;8.52;;;;;;;;;;5006948;28;20221;-80
2024/01/10 06:58:54;;;;;;;19.10;9.68;;;;;;;;;;5006966;28;20176;-80
2024/01/10 07:01:21;;;;;;;13.70;8.13;;;;;;;;;;5005481;28;20186;-81
2024/01/10 07:03:47;;;;;;;20.85;9.20;;;;;;;;;;5006926;28;20257;-80
2024/01/10 07:06:17;;;;;;;11.43;7.78;;;;;;;;;;5005937;28;20637;-80
2024/01/10 07:08:44;;;;;;;14.02;7.97;;;;;;;;;;5005834;28;20252;-80
2024/01/10 07:11:11;;;;;;;18.30;9.77;;;;;;;;;;5003627;28;20172;-80
2024/01/10 07:13:37;;;;;;;19.85;9.45;;;;;;;;;;5003880;28;20182;-81
2024/01/10 07:16:03;;;;;;;16.25;10.50;;;;;;;;;;5005450;28;20185;-80
2024/01/10 07:18:30;;;;;;;20.25;10.18;;;;;;;;;;5006155;28;20266;-80
2024/01/10 07:20:56;;;;;;;15.82;8.63;;;;;;;;;;5006384;28;20169;-80
2024/01/10 07:23:25;;;;;;;19.38;10.52;;;;;;;;;;5004171;28;20521;-80
2024/01/10 07:25:51;;;;;;;23.38;11.45;;;;;;;;;;4990798;28;20198;-81
2024/01/10 07:28:17;;;;;;;15.95;10.25;;;;;;;;;;4986568;28;20195;-81
2024/01/10 07:30:44;;;;;;;20.20;9.68;;;;;;;;;;4985596;28;20173;-80
2024/01/10 07:33:10;;;;;;;20.20;10.20;;;;;;;;;;4987198;28;20192;-80
2024/01/10 07:35:37;;;;;;;27.98;11.55;;;;;;;;;;4985591;28;20724;-81
2024/01/10 07:38:04;;;;;;;20.65;10.00;;;;;;;;;;4986193;28;20510;-80
2024/01/10 07:40:30;;;;;;;22.75;10.70;;;;;;;;;;4986349;28;20186;-80
2024/01/10 07:42:56;;;;;;;19.35;10.70;;;;;;;;;;4985594;28;20192;-81
2024/01/10 07:45:22;;;;;;;18.25;10.23;;;;;;;;;;4988488;28;20226;-80
2024/01/10 07:47:48;;;;;;;22.98;13.13;;;;;;;;;;5000685;28;20198;-81
2024/01/10 07:50:14;;;;;;;27.02;13.15;;;;;;;;;;4987154;28;20213;-80
2024/01/10 07:52:41;;;;;;;23.42;12.40;;;;;;;;;;4994772;28;20193;-80
2024/01/10 07:55:08;;;;;;;32.90;15.20;;;;;;;;;;4990043;28;20335;-81
2024/01/10 07:57:35;;;;;;;31.42;13.80;;;;;;;;;;4985663;28;20549;-81
2024/01/10 08:00:01;;;;;;;28.33;12.40;;;;;;;;;;4986682;28;20180;-80
2024/01/10 08:02:26;;;;;;;26.77;10.88;;;;;;;;;;4986686;28;20216;-80
2024/01/10 08:04:53;;;;;;;19.47;11.17;;;;;;;;;;4986134;28;20700;-80
2024/01/10 08:07:19;;;;;;;27.25;11.82;;;;;;;;;;4986579;28;20405;-80
2024/01/10 08:09:45;;;;;;;19.95;9.80;;;;;;;;;;4986803;28;20249;-80
2024/01/10 08:12:14;;;;;;;24.30;12.70;;;;;;;;;;4986422;28;20178;-80
2024/01/10 08:14:40;;;;;;;21.98;9.57;;;;;;;;;;5001358;28;20198;-80
2024/01/10 08:17:06;;;;;;;16.10;9.35;;;;;;;;;;5002907;28;20258;-80
2024/01/10 08:19:33;;;;;;;15.68;11.07;;;;;;;;;;5005939;28;20182;-79
2024/01/10 08:21:59;;;;;;;22.83;11.90;;;;;;;;;;5005893;28;20309;-80
2024/01/10 08:24:25;;;;;;;20.85;11.02;;;;;;;;;;5005418;28;20671;-80
2024/01/10 08:26:54;;;;;;;22.33;10.85;;;;;;;;;;5004784;28;20266;-80
2024/01/10 08:29:20;;;;;;;24.17;10.93;;;;;;;;;;5005911;28;20184;-80
2024/01/10 08:31:46;;;;;;;24.23;11.60;;;;;;;;;;5005546;28;20663;-81
2024/01/10 08:34:12;;;;;;;20.45;10.43;;;;;;;;;;5006035;28;20185;-80
2024/01/10 08:36:39;;;;;;;16.45;10.30;;;;;;;;;;5005579;28;20206;-82
2024/01/10 08:39:06;;;;;;;19.23;10.50;;;;;;;;;;5005737;28;20185;-80
2024/01/10 08:41:32;;;;;;;31.70;11.55;;;;;;;;;;5005694;28;20179;-80
2024/01/10 08:43:58;;;;;;;17.38;8.73;;;;;;;;;;5005499;28;20622;-80
2024/01/10 08:46:27;;;;;;;24.75;12.00;;;;;;;;;;5005738;28;20189;-80
2024/01/10 08:48:53;;;;;;;21.27;12.75;;;;;;;;;;5003491;28;20756;-80
2024/01/10 08:51:19;;;;;;;22.30;11.35;;;;;;;;;;5004784;28;20187;-80
2024/01/10 08:53:45;;;;;;;30.42;11.85;;;;;;;;;;5004112;28;20194;-80
2024/01/10 08:56:11;;;;;;;22.60;11.55;;;;;;;;;;5004600;28;20285;-80
2024/01/10 08:58:37;;;;;;;22.23;11.93;;;;;;;;;;5005586;28;20234;-80
2024/01/10 09:01:08;;;;;;;23.60;11.13;;;;;;;;;;5005740;28;20183;-80
2024/01/10 09:03:34;;;;;;;23.35;11.50;;;;;;;;;;5004673;28;20234;-80
2024/01/10 09:06:00;;;;;;;22.58;12.05;;;;;;;;;;5003595;28;20190;-80
2024/01/10 09:08:26;;;;;;;22.60;11.40;;;;;;;;;;5004893;28;20200;-80
2024/01/10 09:10:52;;;;;;;20.30;10.85;;;;;;;;;;5003720;28;20174;-80
2024/01/10 09:13:18;;;;;;;50.22;25.23;;;;;;;;;;5003740;28;20188;-81
2024/01/10 09:15:44;;;;;;;28.77;13.83;;;;;;;;;;4994424;28;20191;-80
2024/01/10 09:18:10;;;;;;;27.95;13.88;;;;;;;;;;5004692;28;20480;-80
2024/01/10 09:20:36;;;;;;;24.40;12.15;;;;;;;;;;5016094;28;20204;-80
2024/01/10 09:23:02;;;;;;;24.77;11.13;;;;;;;;;;4985457;28;20170;-80
2024/01/10 09:25:28;;;;;;;22.77;11.43;;;;;;;;;;4984920;28;20228;-80
2024/01/10 09:27:54;;;;;;;24.30;12.60;;;;;;;;;;4985584;28;20180;-80
2024/01/10 09:30:21;;;;;;;21.55;13.02;;;;;;;;;;4984928;28;20172;-80
2024/01/10 09:32:47;;;;;;;21.85;12.45;;;;;;;;;;4985796;28;20198;-80
2024/01/10 09:35:17;;;;;;;24.35;13.85;;;;;;;;;;4985838;28;20181;-80
2024/01/10 09:37:45;;;;;;;24.17;13.05;;;;;;;;;;4985864;28;20180;-81
2024/01/10 09:40:13;;;;;;;25.13;13.65;;;;;;;;;;4986444;28;20176;-80
2024/01/10 09:42:39;;;;;;;28.80;15.07;;;;;;;;;;4986972;28;20187;-80
2024/01/10 09:45:06;;;;;;;28.23;14.43;;;;;;;;;;4986550;28;20212;-80
2024/01/10 09:47:32;;;;;;;23.02;13.55;;;;;;;;;;5007500;28;20220;-80
2024/01/10 09:49:59;;;;;;;22.05;12.15;;;;;;;;;;5009725;28;20189;-81
2024/01/10 09:52:27;;;;;;;28.88;16.20;;;;;;;;;;5010432;28;20176;-80
2024/01/10 09:54:56;;;;;;;25.20;13.48;;;;;;;;;;5010627;28;20175;-79
2024/01/10 09:57:23;;;;;;;24.75;14.27;;;;;;;;;;5010860;28;20174;-80
2024/01/10 09:59:51;;;;;;;21.25;14.10;;;;;;;;;;5010532;28;20380;-80
2024/01/10 10:02:17;;;;;;;24.88;14.88;;;;;;;;;;5011619;28;20183;-80
2024/01/10 10:04:46;;;;;;;22.65;14.25;;;;;;;;;;5010614;28;20366;-86
2024/01/10 10:07:12;;;;;;;24.90;13.45;;;;;;;;;;5009671;28;20247;-80
2024/01/10 10:09:38;;;;;;;23.00;13.10;;;;;;;;;;5011093;28;20213;-80
2024/01/10 10:12:04;;;;;;;27.67;14.90;;;;;;;;;;5011675;28;20186;-80
2024/01/10 10:14:30;;;;;;;21.60;13.57;;;;;;;;;;5011238;28;20431;-80
2024/01/10 10:16:57;;;;;;;42.95;24.42;;;;;;;;;;5011811;28;20171;-80
2024/01/10 10:19:23;;;;;;;28.40;16.02;;;;;;;;;;5011295;28;20251;-80
2024/01/10 10:21:49;;;;;;;31.02;18.85;;;;;;;;;;5011031;28;20203;-81
2024/01/10 10:24:15;;;;;;;32.63;16.17;;;;;;;;;;5010864;28;20223;-80
2024/01/10 10:26:41;;;;;;;28.67;16.98;;;;;;;;;;5011148;28;20200;-80
2024/01/10 10:29:07;;;;;;;30.45;15.90;;;;;;;;;;5010767;28;20181;-80
2024/01/10 10:31:33;;;;;;;27.27;14.45;;;;;;;;;;5011003;28;20535;-80
2024/01/10 10:34:02;;;;;;;28.95;14.15;;;;;;;;;;5010645;28;20193;-80
2024/01/10 10:36:31;;;;;;;26.20;14.32;;;;;;;;;;5010607;28;20179;-80
2024/01/10 10:39:01;;;;;;;31.00;15.30;;;;;;;;;;5010378;28;20211;-80
2024/01/10 10:41:30;;;;;;;30.50;14.00;;;;;;;;;;5010775;28;20186;-80
2024/01/10 10:43:56;;;;;;;35.58;14.27;;;;;;;;;;5006028;28;20432;-81
2024/01/10 10:46:24;;;;;;;27.48;14.70;;;;;;;;;;4990396;28;20196;-80
2024/01/10 10:48:50;;;;;;;25.50;13.90;;;;;;;;;;5005057;28;20656;-80
2024/01/10 10:51:25;;;;;;;23.88;12.27;;;;;;;;;;5003255;28;20187;-80
2024/01/10 10:53:52;;;;;;;24.23;11.43;;;;;;;;;;5008341;28;20555;-81
2024/01/10 10:56:18;;;;;;;20.58;11.55;;;;;;;;;;5008269;28;20191;-80
2024/01/10 10:58:44;;;;;;;18.85;10.60;;;;;;;;;;5007906;28;20528;-80
2024/01/10 11:01:12;;;;;;;19.02;10.85;;;;;;;;;;4990561;28;20214;-80
2024/01/10 11:03:39;;;;;;;18.55;10.75;;;;;;;;;;4987843;28;20227;-80
2024/01/10 11:06:06;;;;;;;20.92;11.35;;;;;;;;;;4987904;28;20176;-80
2024/01/10 11:08:37;;;;;;;18.75;10.95;;;;;;;;;;4991992;28;20183;-80
2024/01/10 11:11:04;;;;;;;19.55;10.40;;;;;;;;;;5007105;28;20164;-80
2024/01/10 11:13:42;;;;;;;21.20;11.82;;;;;;;;;;5007315;28;20184;-80
2024/01/10 11:16:11;;;;;;;23.40;12.18;;;;;;;;;;5006690;28;20213;-80
2024/01/10 11:18:46;;;;;;;19.30;11.60;;;;;;;;;;5007143;28;20187;-79
2024/01/10 11:21:15;;;;;;;19.58;10.20;;;;;;;;;;5006943;28;20230;-79
2024/01/10 11:23:45;;;;;;;17.83;10.75;;;;;;;;;;5006911;28;20211;-80
2024/01/10 11:26:13;;;;;;;20.55;10.80;;;;;;;;;;5007651;28;20175;-80
2024/01/10 11:28:39;;;;;;;17.63;10.07;;;;;;;;;;5007554;28;20174;-80
2024/01/10 11:31:06;;;;;;;19.40;11.20;;;;;;;;;;5006448;28;20186;-80
2024/01/10 11:33:33;;;;;;;26.83;11.75;;;;;;;;;;5007741;28;20175;-80
2024/01/10 11:36:11;;;;;;;18.90;10.52;;;;;;;;;;5008251;28;20179;-80
2024/01/10 11:38:44;;;;;;;17.60;10.05;;;;;;;;;;5007742;28;20205;-80
2024/01/10 11:41:11;;;;;;;19.13;10.65;;;;;;;;;;5004274;28;20175;-80
2024/01/10 11:43:37;;;;;;;20.98;11.30;;;;;;;;;;5006280;28;20221;-80
2024/01/10 11:46:04;;;;;;;18.23;10.18;;;;;;;;;;5006253;28;20189;-79
2024/01/10 11:48:31;;;;;;;18.98;10.45;;;;;;;;;;5006138;28;20184;-79
2024/01/10 11:50:58;;;;;;;17.13;10.30;;;;;;;;;;4991583;28;20216;-79
2024/01/10 11:53:45;;;;;;;18.30;10.15;;;;;;;;;;4987894;28;20214;-79
2024/01/10 11:56:16;;;;;;;17.48;9.85;;;;;;;;;;4994873;28;20192;-80
2024/01/10 11:58:54;;;;;;;21.63;11.32;;;;;;;;;;5007301;28;20172;-80
2024/01/10 12:01:21;;;;;;;18.88;9.82;;;;;;;;;;5007539;28;20199;-80
2024/01/10 12:03:48;;;;;;;17.88;9.98;;;;;;;;;;5007112;28;20296;-79
2024/01/10 12:06:15;;;;;;;21.30;11.25;;;;;;;;;;5006184;28;20175;-78
2024/01/10 12:08:41;;;;;;;18.40;10.48;;;;;;;;;;5007161;28;20182;-80
2024/01/10 12:11:08;;;;;;;18.77;9.88;;;;;;;;;;5007787;28;20172;-79
2024/01/10 12:13:34;;;;;;;17.13;10.60;;;;;;;;;;5007201;28;20180;-80
2024/01/10 12:16:00;;;;;;;22.88;10.65;;;;;;;;;;5006437;28;20194;-79
2024/01/10 12:18:26;;;;;;;24.48;11.65;;;;;;;;;;5006219;28;20187;-81
2024/01/10 12:20:52;;;;;;;24.08;11.65;;;;;;;;;;5005291;28;20178;-80
2024/01/10 12:23:18;;;;;;;24.50;10.93;;;;;;;;;;5004929;28;20535;-79
2024/01/10 12:25:44;;;;;;;19.13;10.20;;;;;;;;;;5004649;28;20425;-79
2024/01/10 12:28:10;;;;;;;22.27;11.80;;;;;;;;;;5005309;28;20266;-79
2024/01/10 12:30:36;;;;;;;22.17;11.57;;;;;;;;;;5006310;28;20785;-79
2024/01/10 12:33:02;;;;;;;22.00;11.20;;;;;;;;;;5006322;28;20413;-79
2024/01/10 12:35:28;;;;;;;20.63;10.73;;;;;;;;;;5007146;28;20247;-78
2024/01/10 12:37:57;;;;;;;22.40;11.93;;;;;;;;;;5008023;28;20194;-81
2024/01/10 12:40:23;;;;;;;21.30;11.68;;;;;;;;;;5008160;28;20410;-78
2024/01/10 12:42:49;;;;;;;23.48;11.90;;;;;;;;;;5006775;28;20266;-79
2024/01/10 12:45:22;;;;;;;22.25;12.55;;;;;;;;;;5006833;28;20335;-79
2024/01/10 12:47:48;;;;;;;23.50;11.73;;;;;;;;;;5007662;28;20598;-78
2024/01/10 12:50:14;;;;;;;20.13;11.73;;;;;;;;;;5006518;28;20240;-78
2024/01/10 12:52:44;;;;;;;19.40;11.10;;;;;;;;;;5007132;28;20193;-79
2024/01/10 12:55:10;;;;;;;23.58;11.73;;;;;;;;;;5006796;28;20195;-79
2024/01/10 12:57:36;;;;;;;17.30;11.00;;;;;;;;;;5006814;28;20177;-79
2024/01/10 13:00:06;;;;;;;23.83;12.45;;;;;;;;;;5005921;28;20245;-79
2024/01/10 13:02:34;;;;;;;20.80;12.10;;;;;;;;;;5006081;28;20164;-78
2024/01/10 13:05:01;;;;;;;21.70;11.48;;;;;;;;;;5006031;28;20252;-79
2024/01/10 13:07:30;;;;;;;23.10;12.07;;;;;;;;;;5005724;28;20640;-79
2024/01/10 13:09:56;;;;;;;24.30;11.80;;;;;;;;;;5004649;28;20216;-79
2024/01/10 13:12:22;;;;;;;20.80;11.40;;;;;;;;;;5002761;28;20181;-78
2024/01/10 13:14:48;;;;;;;19.67;12.10;;;;;;;;;;5004322;28;20193;-78
2024/01/10 13:17:14;;;;;;;18.03;11.03;;;;;;;;;;5005682;28;20449;-78
2024/01/10 13:19:40;;;;;;;18.97;10.83;;;;;;;;;;5006133;28;20888;-79
2024/01/10 13:22:06;;;;;;;18.40;11.23;;;;;;;;;;5008581;28;20782;-79
2024/01/10 13:24:33;;;;;;;25.50;12.53;;;;;;;;;;5009011;28;20215;-79
2024/01/10 13:26:58;;;;;;;25.65;12.82;;;;;;;;;;5008991;28;20405;-79
2024/01/10 13:29:24;;;;;;;21.60;12.70;;;;;;;;;;5009108;28;20190;-79
2024/01/10 13:31:51;;;;;;;21.43;12.40;;;;;;;;;;5009922;28;20416;-80
2024/01/10 13:34:17;;;;;;;16.88;10.40;;;;;;;;;;5008540;28;20423;-79
2024/01/10 13:36:43;;;;;;;25.30;11.70;;;;;;;;;;5007852;28;20187;-79
2024/01/10 13:39:09;;;;;;;26.60;12.07;;;;;;;;;;5008256;28;20643;-79
2024/01/10 13:41:36;;;;;;;23.85;12.90;;;;;;;;;;5008403;28;20484;-79
2024/01/10 13:44:02;;;;;;;22.20;12.30;;;;;;;;;;5009278;28;20219;-79
2024/01/10 13:46:28;;;;;;;23.42;13.15;;;;;;;;;;5008186;28;20412;-79
2024/01/10 13:48:54;;;;;;;19.50;12.97;;;;;;;;;;5008259;28;20182;-79
2024/01/10 13:51:20;;;;;;;20.77;11.60;;;;;;;;;;5007719;28;20400;-79
2024/01/10 13:53:46;;;;;;;25.25;12.25;;;;;;;;;;5008358;28;20501;-79
2024/01/10 13:56:12;;;;;;;18.10;11.10;;;;;;;;;;5002422;28;20203;-79
2024/01/10 13:58:38;;;;;;;19.23;11.10;;;;;;;;;;4999577;28;20401;-79
2024/01/10 14:01:04;;;;;;;21.43;12.27;;;;;;;;;;5007890;28;20417;-79
2024/01/10 14:03:30;;;;;;;18.08;9.80;;;;;;;;;;4994422;28;20941;-79
2024/01/10 14:05:56;;;;;;;19.33;11.70;;;;;;;;;;4988519;28;20264;-79
2024/01/10 14:08:22;;;;;;;18.13;10.77;;;;;;;;;;4988806;28;20183;-79
2024/01/10 14:10:48;;;;;;;17.57;10.33;;;;;;;;;;4989025;28;20807;-79
2024/01/10 14:13:14;;;;;;;23.43;10.67;;;;;;;;;;4988195;28;20773;-79
2024/01/10 14:15:41;;;;;;;17.53;11.03;;;;;;;;;;4990099;28;20509;-79
2024/01/10 14:18:07;;;;;;;16.73;11.32;;;;;;;;;;5027802;28;20740;-79
2024/01/10 14:20:35;;;;;;;20.25;11.52;;;;;;;;;;5027976;28;20181;-79